»·PEaware :: N9401L KDAL-KAUS

N9401L :: KDAL-KAUS

FLIGHT INFORMATION

Flight Status: Arrived
Operator: Privately registered:
United States
More flights under this callsign
Pilot: Juan D. (11620)
Aircraft: BOEING 737-800
(B738)
More flights by this aircraft type
Origin: KDAL Dallas Love
United States
Destination: KAUS Austin Bergstrom Intl
United States
More flights between these airports :: More routes between these airports
Route: VENUS3
File this flight plan on PilotEdge
Remarks:
Altitude:
(Current/Filed)
18,000ft
Speed:
(Current/Filed)
300kts
Departed: 02-Jan-20 09:48 AM
Arrived: 02-Jan-20 10:24 AM
Distance/Time
Traveled:
165nm/0:36
Distance/Time
To Go:
Arrived

Flight Plot

Page will automatically refresh every two minutes.

Flight plan parsing failed; only flown route is shown


Map Options




Map Legend


Flown Route
Filed Route
Departure Airport
Arrival Airport
Navaid (VOR, NDB)
Fix

Horizontal Profiles

Position Reports

Time Latitude Longitude Heading Altitude Ground
Speed
02-Jan-20 09:46 32.851003 -96.863088 135 493ft 0kts
02-Jan-20 09:47 32.838311 -96.848307 139 1007ft 172kts
02-Jan-20 09:48 32.807668 -96.850792 225 4195ft 185kts
02-Jan-20 09:49 32.780609 -96.866836 198 7196ft 178kts
02-Jan-20 09:50 32.745548 -96.879777 204 10376ft 180kts
02-Jan-20 09:51 32.706153 -96.895198 207 13537ft 184kts
02-Jan-20 09:52 32.662567 -96.912260 207 16661ft 187kts
02-Jan-20 09:53 32.605928 -96.934508 205 17854ft 277kts
02-Jan-20 09:54 32.514542 -96.969954 204 17726ft 328kts
02-Jan-20 09:55 32.395631 -97.016144 202 17729ft 379kts
02-Jan-20 09:56 32.266868 -97.058376 190 17781ft 381kts
02-Jan-20 09:57 32.127872 -97.063912 188 17747ft 383kts
02-Jan-20 09:59 31.988966 -97.068268 188 17745ft 383kts
02-Jan-20 10:00 31.850698 -97.072579 188 17755ft 382kts
02-Jan-20 10:01 31.714970 -97.076812 187 17756ft 381kts
02-Jan-20 10:02 31.603387 -97.080256 187 17753ft 381kts
02-Jan-20 10:03 31.500866 -97.096710 203 17753ft 371kts
02-Jan-20 10:04 31.404831 -97.138580 203 17755ft 368kts
02-Jan-20 10:05 31.309056 -97.181137 203 17759ft 367kts
02-Jan-20 10:06 31.214104 -97.223233 203 17763ft 367kts
02-Jan-20 10:07 31.118977 -97.265335 203 17762ft 367kts
02-Jan-20 10:08 31.024180 -97.307187 203 17757ft 367kts
02-Jan-20 10:09 30.927889 -97.349595 204 17690ft 372kts
02-Jan-20 10:10 30.832288 -97.391647 205 17676ft 375kts
02-Jan-20 10:11 30.747575 -97.449646 214 17272ft 330kts
02-Jan-20 10:12 30.679609 -97.499227 215 14459ft 268kts
02-Jan-20 10:13 30.627150 -97.537508 215 11925ft 228kts
02-Jan-20 10:14 30.578307 -97.573191 211 9353ft 205kts
02-Jan-20 10:15 30.534267 -97.609514 224 7163ft 180kts
02-Jan-20 10:15 30.510467 -97.641809 224 5667ft 183kts
02-Jan-20 10:17 30.470475 -97.661025 183 5080ft 150kts
02-Jan-20 10:18 30.429653 -97.663032 179 4980ft 168kts
02-Jan-20 10:19 30.388665 -97.662658 177 3776ft 194kts
02-Jan-20 10:20 30.348108 -97.661634 177 2210ft 182kts
02-Jan-20 10:20 30.316303 -97.660795 177 1527ft 170kts
02-Jan-20 10:22 30.268665 -97.659555 178 1097ft 174kts
02-Jan-20 10:22 30.230479 -97.658572 178 839ft 172kts
02-Jan-20 10:23 30.190334 -97.657602 178 549ft 13kts
02-Jan-20 10:25 30.188401 -97.658801 3 549ft 2kts
02-Jan-20 10:25 30.188401 -97.658801 3 549ft 2kts
02-Jan-20 10:27 30.188401 -97.658801 3 549ft 2kts
02-Jan-20 10:27 30.188401 -97.658801 3 549ft 2kts
02-Jan-20 10:28 30.188401 -97.658801 3 549ft 2kts
02-Jan-20 10:29 30.188401 -97.658801 3 549ft 2kts
02-Jan-20 10:30 30.188401 -97.658801 3 549ft 2kts
02-Jan-20 10:31 30.188401 -97.658801 3 549ft 2kts
02-Jan-20 10:32 30.188401 -97.658801 3 549ft 2kts
02-Jan-20 10:33 30.188401 -97.658801 3 549ft 2kts
02-Jan-20 10:34 30.188401 -97.658801 3 549ft 2kts
02-Jan-20 10:35 30.188401 -97.658801 3 549ft 2kts
02-Jan-20 10:36 30.188401 -97.658801 3 549ft 2kts
02-Jan-20 10:37 30.188401 -97.658801 3 549ft 2kts

Navigation Log

Ident Type
Flight plan parsing failed, navigation log unavailable